createdAt,value
2023-03-02T00:00:16.370Z,12.30
2023-03-02T00:03:18.267Z,11.63
2023-03-02T00:06:20.218Z,11.18
2023-03-02T00:09:21.862Z,11.65
2023-03-02T00:12:24.401Z,11.02
2023-03-02T00:15:26.911Z,11.67
2023-03-02T00:18:28.640Z,11.20
2023-03-02T00:21:31.776Z,12.40
2023-03-02T00:24:33.456Z,11.60
2023-03-02T00:27:35.453Z,11.20
2023-03-02T00:30:38.919Z,10.00
2023-03-02T00:33:40.601Z,9.55
2023-03-02T00:36:42.686Z,9.80
2023-03-02T00:39:44.592Z,9.18
2023-03-02T00:42:46.245Z,8.77
2023-03-02T00:45:47.908Z,7.53
2023-03-02T00:48:50.370Z,8.10
2023-03-02T00:51:52.146Z,8.20
2023-03-02T00:54:53.732Z,7.25
2023-03-02T00:57:55.396Z,8.13
2023-03-02T01:00:57.866Z,8.33
2023-03-02T01:03:59.510Z,7.53
2023-03-02T01:07:07.118Z,7.80
2023-03-02T01:10:09.834Z,7.75
2023-03-02T01:13:11.500Z,7.97
2023-03-02T01:16:14.128Z,7.67
2023-03-02T01:19:16.602Z,7.15
2023-03-02T01:22:19.287Z,7.13
2023-03-02T01:25:21.127Z,8.18
2023-03-02T01:28:22.752Z,8.57
2023-03-02T01:31:26.176Z,7.00
2023-03-02T01:34:28.052Z,7.07
2023-03-02T01:37:29.644Z,8.55
2023-03-02T01:40:31.435Z,9.07
2023-03-02T01:43:33.281Z,8.07
2023-03-02T01:46:36.205Z,8.63
2023-03-02T01:49:38.111Z,9.30
2023-03-02T01:52:39.926Z,8.57
2023-03-02T01:55:44.206Z,7.68
2023-03-02T01:58:51.216Z,7.82
2023-03-02T02:01:56.885Z,6.90
2023-03-02T02:04:58.528Z,7.78
2023-03-02T02:08:00.324Z,7.53
2023-03-02T02:11:02.064Z,7.15
2023-03-02T02:14:03.948Z,7.35
2023-03-02T02:17:05.947Z,9.00
2023-03-02T02:20:24.058Z,8.30
2023-03-02T02:23:45.808Z,8.60
2023-03-02T02:26:53.288Z,7.72
2023-03-02T02:29:58.188Z,7.32
2023-03-02T02:33:00.945Z,7.33
2023-03-02T02:36:07.428Z,7.68
2023-03-02T02:39:17.589Z,7.32
2023-03-02T02:42:25.240Z,7.78
2023-03-02T02:45:27.665Z,7.97
2023-03-02T02:48:31.885Z,7.43
2023-03-02T02:51:34.489Z,7.63
2023-03-02T02:54:37.535Z,7.78
2023-03-02T02:57:39.938Z,7.88
2023-03-02T03:00:41.866Z,7.38
2023-03-02T03:03:50.034Z,7.30
2023-03-02T03:06:54.967Z,7.30
2023-03-02T03:10:05.482Z,7.65
2023-03-02T03:13:10.262Z,8.00
2023-03-02T03:16:15.543Z,8.43
2023-03-02T03:19:18.304Z,7.73
2023-03-02T03:22:20.155Z,7.20
2023-03-02T03:25:25.467Z,7.35
2023-03-02T03:28:28.400Z,6.90
2023-03-02T03:31:30.123Z,6.72
2023-03-02T03:34:31.957Z,6.20
2023-03-02T03:37:33.702Z,5.63
2023-03-02T03:40:35.288Z,5.97
2023-03-02T03:43:36.877Z,5.13
2023-03-02T03:46:38.788Z,5.07
2023-03-02T03:49:40.404Z,4.23
2023-03-02T03:52:41.988Z,4.78
2023-03-02T03:55:43.585Z,4.55
2023-03-02T03:58:45.293Z,4.47
2023-03-02T04:01:53.610Z,4.35
2023-03-02T04:04:55.285Z,4.03
2023-03-02T04:07:56.903Z,4.60
2023-03-02T04:10:58.608Z,4.15
2023-03-02T04:14:00.434Z,4.53
2023-03-02T04:17:05.296Z,4.68
2023-03-02T04:20:08.408Z,4.73
2023-03-02T04:23:10.169Z,4.45
2023-03-02T04:26:11.810Z,4.35
2023-03-02T04:29:14.076Z,4.30
2023-03-02T04:32:15.868Z,4.53
2023-03-02T04:35:17.814Z,4.33
2023-03-02T04:38:19.681Z,4.68
2023-03-02T04:41:21.556Z,4.47
2023-03-02T04:44:23.159Z,4.15
2023-03-02T04:47:24.921Z,4.57
2023-03-02T04:50:26.668Z,4.17
2023-03-02T04:53:28.421Z,4.50
2023-03-02T04:56:30.356Z,4.82
2023-03-02T04:59:32.209Z,4.38
2023-03-02T05:02:34.000Z,4.43
2023-03-02T05:05:35.853Z,4.00
2023-03-02T05:08:38.306Z,4.38
2023-03-02T05:11:40.234Z,4.97
2023-03-02T05:14:42.720Z,4.45
2023-03-02T05:17:45.076Z,4.38
2023-03-02T05:20:46.955Z,4.30
2023-03-02T05:23:48.801Z,4.03
2023-03-02T05:26:50.453Z,4.40
2023-03-02T05:29:52.073Z,4.47
2023-03-02T05:32:54.646Z,4.22
2023-03-02T05:35:56.692Z,5.77
2023-03-02T05:38:58.504Z,4.35
2023-03-02T05:42:00.127Z,4.50
2023-03-02T05:45:04.549Z,4.85
2023-03-02T05:48:07.059Z,3.92
2023-03-02T05:51:09.068Z,4.27
2023-03-02T05:54:10.710Z,3.88
2023-03-02T05:57:12.775Z,4.47
2023-03-02T06:00:15.824Z,4.18
2023-03-02T06:03:18.084Z,4.47
2023-03-02T06:06:19.780Z,4.40
2023-03-02T06:09:22.381Z,4.68
2023-03-02T06:12:24.018Z,4.97
2023-03-02T06:15:29.748Z,4.93
2023-03-02T06:18:31.474Z,6.90
2023-03-02T06:21:33.237Z,7.33
2023-03-02T06:24:35.310Z,6.57
2023-03-02T06:27:38.896Z,6.63
2023-03-02T06:30:40.564Z,6.70
2023-03-02T06:33:42.229Z,5.80
2023-03-02T06:36:43.826Z,5.73
2023-03-02T06:39:45.607Z,5.90
2023-03-02T06:42:47.505Z,5.57
2023-03-02T06:45:51.032Z,5.80
2023-03-02T06:48:52.914Z,5.93
2023-03-02T06:51:54.867Z,6.43
2023-03-02T06:54:56.520Z,7.75
2023-03-02T06:57:58.184Z,8.00
2023-03-02T07:00:59.838Z,6.95
2023-03-02T07:04:02.560Z,6.63
2023-03-02T07:07:04.397Z,5.07
2023-03-02T07:10:07.659Z,4.90
2023-03-02T07:13:09.477Z,5.28
2023-03-02T07:16:13.331Z,5.82
2023-03-02T07:19:15.132Z,5.32
2023-03-02T07:22:17.013Z,5.27
2023-03-02T07:25:18.693Z,4.60
2023-03-02T07:28:21.768Z,4.40
2023-03-02T07:31:23.451Z,4.90
2023-03-02T07:34:25.162Z,5.55
2023-03-02T07:37:26.878Z,4.40
2023-03-02T07:40:28.490Z,4.32
2023-03-02T07:43:30.881Z,4.10
2023-03-02T07:46:32.815Z,3.70
2023-03-02T07:49:35.517Z,3.50
2023-03-02T07:52:37.338Z,3.57
2023-03-02T07:55:42.184Z,3.47
2023-03-02T07:58:43.949Z,3.60
2023-03-02T08:01:45.643Z,4.03
2023-03-02T08:04:47.368Z,3.63
2023-03-02T08:07:49.121Z,3.50
2023-03-02T08:10:50.876Z,3.75
2023-03-02T08:13:52.547Z,3.67
2023-03-02T08:16:54.162Z,3.47
2023-03-02T08:19:55.791Z,3.58
2023-03-02T08:22:57.614Z,3.50
2023-03-02T08:25:59.263Z,3.60
2023-03-02T08:29:00.969Z,3.70
2023-03-02T08:32:02.664Z,3.65
2023-03-02T08:35:05.576Z,3.90
2023-03-02T08:38:07.207Z,4.00
2023-03-02T08:41:12.485Z,4.20
2023-03-02T08:44:14.589Z,4.47
2023-03-02T08:47:16.242Z,4.20
2023-03-02T08:50:18.045Z,4.53
2023-03-02T08:53:19.697Z,4.57
2023-03-02T08:56:23.192Z,4.60
2023-03-02T08:59:26.925Z,4.40
2023-03-02T09:02:28.547Z,4.78
2023-03-02T09:05:30.401Z,5.50
2023-03-02T09:08:32.018Z,4.87
2023-03-02T09:11:34.474Z,5.47
2023-03-02T09:14:37.087Z,5.47
2023-03-02T09:17:39.120Z,6.18
2023-03-02T09:20:41.012Z,6.10
2023-03-02T09:23:42.796Z,5.80
2023-03-02T09:26:44.838Z,5.93
2023-03-02T09:29:46.457Z,6.03
2023-03-02T09:32:49.257Z,5.60
2023-03-02T09:35:51.335Z,5.45
2023-03-02T09:38:53.891Z,5.80
2023-03-02T09:41:58.303Z,5.65
2023-03-02T09:45:09.036Z,6.30
2023-03-02T09:48:37.500Z,5.70
2023-03-02T09:51:42.081Z,5.85
2023-03-02T09:54:43.951Z,6.10
2023-03-02T09:57:47.208Z,5.85
2023-03-02T10:00:50.342Z,5.18
2023-03-02T10:04:00.396Z,5.20
2023-03-02T10:07:12.881Z,4.82
2023-03-02T10:10:46.051Z,5.47
2023-03-02T10:14:05.619Z,5.25
2023-03-02T10:17:52.832Z,5.68
2023-03-02T10:21:07.150Z,5.68
2023-03-02T10:24:44.870Z,6.15
2023-03-02T10:28:29.374Z,5.37
2023-03-02T10:31:33.834Z,4.97
2023-03-02T10:34:37.643Z,5.85
2023-03-02T10:37:39.289Z,5.60
2023-03-02T10:41:08.652Z,5.00
2023-03-02T10:44:23.079Z,5.30
2023-03-02T10:47:28.301Z,5.95
2023-03-02T10:50:32.796Z,5.90
2023-03-02T10:53:34.426Z,5.47
2023-03-02T10:56:36.251Z,6.18
2023-03-02T10:59:40.407Z,5.10
2023-03-02T11:02:53.873Z,4.68
2023-03-02T11:05:56.403Z,5.10
2023-03-02T11:09:03.596Z,5.30
2023-03-02T11:12:05.567Z,4.97
2023-03-02T11:15:19.205Z,5.10
2023-03-02T11:18:39.406Z,4.90
2023-03-02T11:21:47.370Z,4.78
2023-03-02T11:24:55.229Z,5.05
2023-03-02T11:28:09.491Z,5.20
2023-03-02T11:31:21.674Z,4.90
2023-03-02T11:34:31.403Z,4.82
2023-03-02T11:37:50.500Z,4.57
2023-03-02T11:41:11.498Z,5.00
2023-03-02T11:44:17.205Z,5.07
2023-03-02T11:47:20.793Z,5.00
2023-03-02T11:50:23.480Z,5.15
2023-03-02T11:53:49.970Z,5.15
2023-03-02T11:56:51.736Z,5.47
2023-03-02T11:59:56.184Z,6.03
2023-03-02T12:03:07.607Z,5.70
2023-03-02T12:06:15.258Z,5.50
2023-03-02T12:09:22.684Z,5.40
2023-03-02T12:12:33.482Z,5.15
2023-03-02T12:15:39.323Z,5.18
2023-03-02T12:18:47.539Z,5.43
2023-03-02T12:22:01.155Z,5.68
2023-03-02T12:25:28.301Z,6.20
2023-03-02T12:28:39.804Z,5.60
2023-03-02T12:31:54.348Z,5.47
2023-03-02T12:35:08.315Z,5.90
2023-03-02T12:38:29.784Z,5.60
2023-03-02T12:42:06.339Z,5.65
2023-03-02T12:45:29.635Z,5.60
2023-03-02T12:48:45.533Z,5.63
2023-03-02T12:51:55.962Z,5.90
2023-03-02T12:55:19.150Z,6.20
2023-03-02T12:58:23.683Z,5.53
2023-03-02T13:01:31.096Z,5.70
2023-03-02T13:04:32.843Z,5.32
2023-03-02T13:07:38.506Z,5.67
2023-03-02T13:10:50.672Z,5.20
2023-03-02T13:13:52.563Z,4.97
2023-03-02T13:17:03.287Z,5.00
2023-03-02T13:20:05.846Z,5.10
2023-03-02T13:23:11.276Z,5.63
2023-03-02T13:26:33.726Z,5.03
2023-03-02T13:29:36.060Z,5.53
2023-03-02T13:32:43.337Z,4.90
2023-03-02T13:35:47.492Z,5.30
2023-03-02T13:38:53.345Z,5.40
2023-03-02T13:42:03.593Z,5.40
2023-03-02T13:45:23.860Z,5.10
2023-03-02T13:48:27.789Z,5.38
2023-03-02T13:51:34.160Z,5.07
2023-03-02T13:54:37.608Z,5.00
2023-03-02T13:57:42.187Z,5.20
2023-03-02T14:00:44.564Z,5.40
2023-03-02T14:03:46.255Z,5.47
2023-03-02T14:06:47.929Z,5.60
2023-03-02T14:09:49.791Z,5.00
2023-03-02T14:13:02.774Z,4.78
2023-03-02T14:16:04.907Z,4.70
2023-03-02T14:19:06.829Z,5.00
2023-03-02T14:22:11.608Z,5.20
2023-03-02T14:25:13.938Z,5.40
2023-03-02T14:28:23.243Z,5.35
2023-03-02T14:31:25.045Z,5.05
2023-03-02T14:34:26.937Z,5.47
2023-03-02T14:37:30.239Z,5.60
2023-03-02T14:40:31.983Z,4.70
2023-03-02T14:43:33.638Z,5.57
2023-03-02T14:46:35.342Z,5.50
2023-03-02T14:49:37.817Z,5.25
2023-03-02T14:52:49.674Z,5.22
2023-03-02T14:55:51.301Z,5.27
2023-03-02T14:58:53.649Z,5.13
2023-03-02T15:01:57.747Z,5.05
2023-03-02T15:05:00.155Z,5.00
2023-03-02T15:08:01.818Z,5.20
2023-03-02T15:11:03.418Z,5.17
2023-03-02T15:14:05.039Z,5.22
2023-03-02T15:17:07.287Z,5.00
2023-03-02T15:20:15.061Z,5.13
2023-03-02T15:23:16.749Z,4.65
2023-03-02T15:26:18.557Z,4.20
2023-03-02T15:29:20.711Z,4.95
2023-03-02T15:32:22.372Z,4.97
2023-03-02T15:35:24.057Z,4.75
2023-03-02T15:38:25.738Z,4.78
2023-03-02T15:41:27.504Z,4.83
2023-03-02T15:44:29.744Z,4.72
2023-03-02T15:47:33.599Z,5.03
2023-03-02T15:50:35.243Z,4.95
2023-03-02T15:53:38.614Z,5.00
2023-03-02T15:56:44.351Z,4.87
2023-03-02T15:59:46.890Z,4.25
2023-03-02T16:02:49.906Z,4.53
2023-03-02T16:05:51.538Z,4.22
2023-03-02T16:08:53.368Z,4.22
2023-03-02T16:11:56.157Z,4.53
2023-03-02T16:14:57.771Z,3.90
2023-03-02T16:17:59.384Z,4.32
2023-03-02T16:21:02.492Z,4.28
2023-03-02T16:24:04.741Z,5.18
2023-03-02T16:27:06.389Z,5.10
2023-03-02T16:30:08.851Z,4.82
2023-03-02T16:33:14.747Z,4.30
2023-03-02T16:36:16.378Z,4.30
2023-03-02T16:39:18.012Z,4.10
2023-03-02T16:42:21.182Z,4.13
2023-03-02T16:45:23.280Z,5.00
2023-03-02T16:48:25.019Z,5.70
2023-03-02T16:51:26.665Z,5.25
2023-03-02T16:54:28.964Z,6.93
2023-03-02T16:57:30.708Z,6.50
2023-03-02T17:00:32.500Z,6.60
2023-03-02T17:03:34.955Z,6.03
2023-03-02T17:06:36.844Z,6.57
2023-03-02T17:09:42.438Z,7.00
2023-03-02T17:12:44.042Z,6.00
2023-03-02T17:15:45.767Z,5.97
2023-03-02T17:18:49.588Z,6.72
2023-03-02T17:21:51.185Z,8.02
2023-03-02T17:24:52.816Z,9.57
2023-03-02T17:27:54.443Z,8.60
2023-03-02T17:30:56.128Z,7.95
2023-03-02T17:33:57.798Z,8.27
2023-03-02T17:37:00.610Z,7.07
2023-03-02T17:40:02.579Z,7.63
2023-03-02T17:43:04.352Z,8.70
2023-03-02T17:46:21.236Z,9.13
2023-03-02T17:49:23.073Z,9.13
2023-03-02T17:52:24.719Z,9.23
2023-03-02T17:55:26.687Z,9.55
2023-03-02T17:58:33.199Z,8.90
2023-03-02T18:01:44.767Z,9.43
2023-03-02T18:04:46.433Z,9.45
2023-03-02T18:07:48.160Z,10.48
2023-03-02T18:10:50.269Z,9.90
2023-03-02T18:13:55.098Z,9.97
2023-03-02T18:16:57.686Z,9.85
2023-03-02T18:19:59.330Z,9.70
2023-03-02T18:23:01.532Z,10.48
2023-03-02T18:26:03.206Z,9.70
2023-03-02T18:29:05.338Z,10.13
2023-03-02T18:32:07.003Z,10.55
2023-03-02T18:35:09.467Z,10.38
2023-03-02T18:38:11.135Z,10.23
2023-03-02T18:41:13.812Z,10.63
2023-03-02T18:44:15.695Z,10.53
2023-03-02T18:47:18.206Z,10.48
2023-03-02T18:50:20.501Z,11.02
2023-03-02T18:53:22.142Z,11.30
2023-03-02T18:56:24.226Z,11.43
2023-03-02T18:59:25.887Z,11.03
2023-03-02T19:02:28.481Z,11.48
2023-03-02T19:05:30.182Z,12.15
2023-03-02T19:08:32.374Z,11.25
2023-03-02T19:11:34.438Z,13.70
2023-03-02T19:14:36.177Z,25.37
2023-03-02T19:17:42.656Z,12.75
2023-03-02T19:20:49.737Z,11.43
2023-03-02T19:23:51.838Z,9.98
2023-03-02T19:26:53.729Z,10.45
2023-03-02T19:29:55.452Z,9.47
2023-03-02T19:32:57.585Z,10.05
2023-03-02T19:35:59.241Z,9.57
2023-03-02T19:39:01.000Z,9.52
2023-03-02T19:42:02.668Z,9.20
2023-03-02T19:45:04.691Z,9.53
2023-03-02T19:48:07.321Z,9.85
2023-03-02T19:51:09.370Z,10.32
2023-03-02T19:54:11.086Z,11.05
2023-03-02T19:57:12.837Z,11.88
2023-03-02T20:00:15.972Z,11.53
2023-03-02T20:03:17.783Z,11.10
2023-03-02T20:06:21.217Z,11.77
2023-03-02T20:09:24.245Z,11.50
2023-03-02T20:12:26.571Z,12.05
2023-03-02T20:15:30.879Z,10.97
2023-03-02T20:18:33.175Z,10.57
2023-03-02T20:21:37.911Z,10.80
2023-03-02T20:24:40.549Z,10.70
2023-03-02T20:27:42.444Z,11.10
2023-03-02T20:30:53.935Z,10.47
2023-03-02T20:33:56.086Z,10.55
2023-03-02T20:36:58.214Z,11.30
2023-03-02T20:40:00.582Z,10.77
2023-03-02T20:43:02.280Z,10.95
2023-03-02T20:46:04.801Z,10.47
2023-03-02T20:49:09.834Z,10.73
2023-03-02T20:52:11.587Z,11.07
2023-03-02T20:55:13.426Z,11.40
2023-03-02T20:58:15.424Z,11.25
2023-03-02T21:01:18.160Z,11.30
2023-03-02T21:04:20.045Z,10.85
2023-03-02T21:07:21.698Z,11.25
2023-03-02T21:10:27.657Z,10.82
2023-03-02T21:13:29.430Z,11.50
2023-03-02T21:16:37.129Z,11.07
2023-03-02T21:19:38.854Z,11.27
2023-03-02T21:22:40.723Z,11.52
2023-03-02T21:25:43.922Z,11.05
2023-03-02T21:28:45.761Z,11.52
2023-03-02T21:31:47.849Z,11.23
2023-03-02T21:34:49.515Z,10.38
2023-03-02T21:37:54.221Z,11.45
2023-03-02T21:40:56.001Z,10.70
2023-03-02T21:43:57.892Z,11.27
2023-03-02T21:46:59.599Z,11.00
2023-03-02T21:50:01.564Z,10.73
2023-03-02T21:53:03.607Z,11.18
2023-03-02T21:56:05.777Z,10.48
2023-03-02T21:59:07.353Z,10.30
2023-03-02T22:02:10.003Z,9.80
2023-03-02T22:05:11.809Z,11.07
2023-03-02T22:08:17.932Z,10.90
2023-03-02T22:11:28.463Z,10.40
2023-03-02T22:14:30.083Z,11.02
2023-03-02T22:17:31.770Z,10.73
2023-03-02T22:20:35.385Z,11.23
2023-03-02T22:23:37.109Z,11.05
2023-03-02T22:26:58.164Z,10.93
2023-03-02T22:30:02.872Z,11.13
2023-03-02T22:33:14.912Z,11.13
2023-03-02T22:36:22.297Z,10.80
2023-03-02T22:39:33.001Z,11.65
2023-03-02T22:42:34.652Z,10.98
2023-03-02T22:45:39.546Z,11.48
2023-03-02T22:48:44.268Z,11.13
2023-03-02T22:51:46.040Z,11.02
2023-03-02T22:54:47.822Z,11.40
2023-03-02T22:57:49.394Z,10.93
2023-03-02T23:00:51.215Z,11.25
2023-03-02T23:04:08.287Z,10.53
2023-03-02T23:07:21.752Z,10.82
2023-03-02T23:10:23.454Z,10.50
2023-03-02T23:13:31.145Z,10.32
2023-03-02T23:16:36.102Z,9.95
2023-03-02T23:19:37.841Z,9.17
2023-03-02T23:22:39.707Z,8.65
2023-03-02T23:25:41.701Z,8.82
2023-03-02T23:28:48.462Z,8.23
2023-03-02T23:31:50.317Z,8.70
2023-03-02T23:34:52.358Z,7.67
2023-03-02T23:37:54.086Z,7.70
2023-03-02T23:40:55.858Z,7.72
2023-03-02T23:43:58.277Z,7.20
2023-03-02T23:46:59.994Z,7.03
2023-03-02T23:50:01.618Z,7.40
2023-03-02T23:53:03.210Z,7.03
2023-03-02T23:56:05.125Z,7.30
2023-03-02T23:59:06.749Z,6.93
